createdAt,value
2018-05-21T00:13:59.763Z,14.80
2018-05-21T00:19:03.237Z,14.70
2018-05-21T00:24:07.851Z,14.70
2018-05-21T00:29:11.710Z,14.70
2018-05-21T00:39:19.238Z,14.70
2018-05-21T00:54:31.985Z,14.60
2018-05-21T01:09:44.720Z,14.60
2018-05-21T01:14:47.807Z,14.50
2018-05-21T01:19:50.907Z,14.50
2018-05-21T01:24:54.010Z,14.50
2018-05-21T01:29:57.871Z,14.50
2018-05-21T01:40:05.393Z,14.40
2018-05-21T01:45:08.882Z,14.30
2018-05-21T01:50:12.739Z,14.20
2018-05-21T02:00:21.785Z,14.20
2018-05-21T02:05:24.883Z,14.20
2018-05-21T02:10:27.983Z,14.20
2018-05-21T02:15:31.843Z,14.10
2018-05-21T02:20:35.706Z,14.10
2018-05-21T02:25:39.190Z,14.00
2018-05-21T02:30:43.800Z,14.00
2018-05-21T02:35:46.886Z,14.00
2018-05-21T02:45:54.807Z,14.00
2018-05-21T02:50:58.668Z,14.00
2018-05-21T03:06:12.142Z,14.00
2018-05-21T03:11:15.223Z,13.90
2018-05-21T03:16:19.442Z,13.80
2018-05-21T03:31:31.753Z,13.80
2018-05-21T03:41:40.811Z,13.80
2018-05-21T03:46:43.842Z,13.90
2018-05-21T03:51:48.054Z,13.90
2018-05-21T04:17:22.204Z,13.90
2018-05-21T04:22:26.494Z,13.90
2018-05-21T04:27:29.567Z,14.00
2018-05-21T04:32:33.428Z,14.00
2018-05-21T04:37:37.633Z,14.10
2018-05-21T04:52:50.921Z,14.10
2018-05-21T04:57:54.006Z,14.10
2018-05-21T05:02:57.103Z,14.20
2018-05-21T05:13:05.399Z,14.20
2018-05-21T05:18:08.482Z,14.30
2018-05-21T05:28:16.783Z,14.40
2018-05-21T05:33:21.382Z,14.40
2018-05-21T05:38:24.485Z,14.50
2018-05-21T05:43:29.072Z,15.10
2018-05-21T05:48:32.545Z,16.20
2018-05-21T05:53:36.029Z,17.40
2018-05-21T05:58:39.533Z,18.10
2018-05-21T06:03:43.749Z,18.60
2018-05-21T06:13:52.778Z,20.00
2018-05-21T06:18:55.854Z,20.40
2018-05-21T06:29:04.005Z,20.20
2018-05-21T06:34:07.272Z,21.00
2018-05-21T06:49:19.463Z,21.70
2018-05-21T06:54:23.698Z,21.60
2018-05-21T07:04:31.208Z,21.40
2018-05-21T07:14:39.495Z,21.90
2018-05-21T07:19:44.082Z,22.30
2018-05-21T07:24:47.148Z,22.80
2018-05-21T07:29:50.235Z,22.00
2018-05-21T07:34:54.820Z,22.30
2018-05-21T07:39:58.310Z,22.20
2018-05-21T07:45:01.394Z,22.30
2018-05-21T07:50:04.473Z,22.30
2018-05-21T07:55:07.549Z,22.30
2018-05-21T08:00:10.651Z,22.20
2018-05-21T08:05:13.752Z,23.10
2018-05-21T08:10:16.817Z,23.20
2018-05-21T08:15:20.295Z,23.40
2018-05-21T08:20:24.519Z,23.30
2018-05-21T08:40:41.674Z,24.00
2018-05-21T08:45:45.907Z,24.00
2018-05-21T08:50:48.993Z,23.80
2018-05-21T08:55:52.855Z,24.90
2018-05-21T09:00:55.939Z,24.80
2018-05-21T09:05:59.023Z,24.60
2018-05-21T09:11:02.115Z,24.90
2018-05-21T09:31:20.069Z,26.60
2018-05-21T09:36:23.103Z,25.90
2018-05-21T09:41:26.676Z,25.60
2018-05-21T09:46:30.141Z,25.30
2018-05-21T09:51:33.227Z,26.00
2018-05-21T09:56:37.541Z,26.10
2018-05-21T10:06:46.550Z,25.30
2018-05-21T10:11:50.766Z,24.20
2018-05-21T10:16:53.857Z,24.40
2018-05-21T10:21:58.075Z,24.60
2018-05-21T10:27:01.218Z,24.40
2018-05-21T10:32:04.298Z,24.60
2018-05-21T10:47:17.385Z,25.00
2018-05-21T10:52:21.614Z,24.90
2018-05-21T10:57:24.702Z,24.70
2018-05-21T11:02:28.919Z,24.90
2018-05-21T11:07:33.047Z,24.60
2018-05-21T11:12:36.903Z,24.70
2018-05-21T11:17:40.015Z,25.10
2018-05-21T11:22:43.871Z,25.00
2018-05-21T11:27:47.403Z,24.60
2018-05-21T11:32:51.240Z,24.50
2018-05-21T11:37:54.322Z,24.20
2018-05-21T11:42:57.400Z,24.00
2018-05-21T11:48:00.492Z,24.20
2018-05-21T11:53:03.574Z,24.30
2018-05-21T11:58:07.051Z,24.60
2018-05-21T12:03:10.163Z,24.70
2018-05-21T12:08:13.253Z,24.90
2018-05-21T12:13:16.324Z,24.80
2018-05-21T12:18:19.403Z,24.50
2018-05-21T12:23:23.254Z,24.50
2018-05-21T12:28:26.718Z,24.80
2018-05-21T12:33:29.793Z,24.80
2018-05-21T12:38:32.869Z,24.80
2018-05-21T12:43:35.958Z,24.80
2018-05-21T12:48:40.170Z,24.80
2018-05-21T12:53:44.395Z,24.80
2018-05-21T12:58:48.614Z,24.80
2018-05-21T13:03:52.082Z,24.90
2018-05-21T13:08:56.299Z,24.90
2018-05-21T13:13:59.373Z,24.90
2018-05-21T13:19:02.450Z,25.10
2018-05-21T13:34:15.889Z,25.40
2018-05-21T13:39:18.962Z,25.70
2018-05-21T13:49:26.858Z,25.50
2018-05-21T14:04:39.547Z,25.50
2018-05-21T14:14:48.563Z,25.50
2018-05-21T14:19:51.635Z,25.70
2018-05-21T14:24:55.851Z,25.70
2018-05-21T14:40:08.894Z,25.70
2018-05-21T14:45:11.971Z,25.80
2018-05-21T14:55:20.251Z,25.50
2018-05-21T15:00:23.323Z,25.60
2018-05-21T15:05:27.535Z,25.70
2018-05-21T15:15:36.554Z,25.40
2018-05-21T15:20:39.643Z,25.30
2018-05-21T15:25:43.851Z,25.30
2018-05-21T15:30:46.918Z,25.10
2018-05-21T15:35:49.996Z,25.10
2018-05-21T15:56:08.285Z,25.40
2018-05-21T16:06:16.553Z,25.30
2018-05-21T16:16:24.826Z,25.20
2018-05-21T16:21:27.906Z,25.30
2018-05-21T16:31:36.910Z,25.20
2018-05-21T16:36:39.979Z,25.10
2018-05-21T16:51:52.278Z,25.10
2018-05-21T17:02:01.302Z,24.90
2018-05-21T17:07:04.399Z,24.90
2018-05-21T17:12:08.601Z,24.90
2018-05-21T17:22:16.870Z,24.70
2018-05-21T17:32:25.904Z,24.70
2018-05-21T17:37:28.979Z,24.70
2018-05-21T17:42:33.194Z,24.60
2018-05-21T17:52:41.450Z,24.50
2018-05-21T18:02:50.490Z,24.50
2018-05-21T18:07:53.575Z,24.40
2018-05-21T18:18:01.843Z,24.30
2018-05-21T18:23:04.915Z,24.10
2018-05-21T18:28:07.999Z,24.00
2018-05-21T18:33:11.839Z,23.90
2018-05-21T18:43:19.756Z,23.60
2018-05-21T18:48:22.855Z,23.40
2018-05-21T18:58:31.176Z,23.20
2018-05-21T19:03:34.220Z,22.90
2018-05-21T19:08:38.069Z,22.70
2018-05-21T19:13:42.305Z,22.30
2018-05-21T19:18:45.389Z,22.20
2018-05-21T19:23:49.257Z,22.10
2018-05-21T19:28:53.784Z,21.80
2018-05-21T19:33:57.632Z,21.70
2018-05-21T19:44:05.161Z,21.50
2018-05-21T19:54:15.186Z,21.50
2018-05-21T20:04:24.230Z,21.30
2018-05-21T20:09:27.327Z,21.20
2018-05-21T20:14:30.424Z,21.10
2018-05-21T20:19:33.505Z,21.00
2018-05-21T20:24:36.590Z,20.90
2018-05-21T20:29:40.816Z,20.90
2018-05-21T20:44:53.974Z,20.80
2018-05-21T20:49:57.052Z,20.80
2018-05-21T21:00:05.338Z,20.70
2018-05-21T21:05:08.420Z,20.50
2018-05-21T21:15:16.719Z,20.20
2018-05-21T21:20:20.202Z,20.10
2018-05-21T21:35:32.554Z,20.00
2018-05-21T21:45:40.485Z,20.10
2018-05-21T22:00:53.605Z,20.00
2018-05-21T22:11:01.550Z,19.80
2018-05-21T22:16:05.399Z,19.80
2018-05-21T22:21:09.618Z,19.80
2018-05-21T22:36:22.337Z,19.60
2018-05-21T22:46:30.875Z,19.20
2018-05-21T22:51:34.357Z,19.00
2018-05-21T22:56:37.842Z,19.00
2018-05-21T23:01:40.926Z,19.00
2018-05-21T23:06:44.031Z,19.00
2018-05-21T23:11:47.507Z,19.00
2018-05-21T23:16:50.986Z,19.00
2018-05-21T23:26:58.501Z,19.00
2018-05-21T23:32:01.617Z,18.90
2018-05-21T23:37:05.463Z,18.90
2018-05-21T23:42:09.340Z,18.80
2018-05-21T23:47:12.433Z,18.80
2018-05-21T23:57:21.091Z,18.70
